Time;durP1;ratioP1;P1;durP2;ratioP2;P2;SDS_P1;SDS_P2;PMS_P1;PMS_P2;Temp;Humidity;BMP_temperature;BMP_pressure;BME280_temperature;BME280_humidity;BME280_pressure;Samples;Min_cycle;Max_cycle;Signal;HPM_P1;HPM_P2
2022/10/23 00:01:52;;;;;;;7.20;2.60;;;;;;;;;;5031924;28;20205;-81
2022/10/23 00:04:21;;;;;;;5.40;2.97;;;;;;;;;;5032714;28;20655;-81
2022/10/23 00:06:48;;;;;;;6.60;3.00;;;;;;;;;;5032899;28;20217;-81
2022/10/23 00:09:17;;;;;;;7.37;2.63;;;;;;;;;;5032685;28;20206;-81
2022/10/23 00:11:46;;;;;;;7.30;3.30;;;;;;;;;;5032168;28;20234;-82
2022/10/23 00:14:14;;;;;;;4.30;3.03;;;;;;;;;;5015687;28;20290;-81
2022/10/23 00:16:42;;;;;;;4.53;3.40;;;;;;;;;;5031650;28;20203;-81
2022/10/23 00:19:09;;;;;;;6.73;3.80;;;;;;;;;;5032018;28;20840;-81
2022/10/23 00:21:36;;;;;;;4.83;3.40;;;;;;;;;;5016248;28;20211;-81
2022/10/23 00:24:03;;;;;;;5.40;2.93;;;;;;;;;;5032556;28;20231;-81
2022/10/23 00:26:30;;;;;;;3.47;3.00;;;;;;;;;;5031891;28;20214;-82
2022/10/23 00:28:57;;;;;;;4.30;3.40;;;;;;;;;;5031677;28;20246;-82
2022/10/23 00:31:25;;;;;;;4.57;3.10;;;;;;;;;;5024351;28;20697;-82
2022/10/23 00:33:54;;;;;;;3.40;3.10;;;;;;;;;;5031589;28;20253;-82
2022/10/23 00:36:22;;;;;;;7.30;3.70;;;;;;;;;;5037209;28;20197;-82
2022/10/23 00:38:49;;;;;;;6.87;4.00;;;;;;;;;;5031649;28;20243;-82
2022/10/23 00:41:17;;;;;;;5.77;3.20;;;;;;;;;;5031800;28;20206;-82
2022/10/23 00:43:59;;;;;;;4.73;3.43;;;;;;;;;;5031815;28;20234;-82
2022/10/23 00:46:26;;;;;;;8.13;2.97;;;;;;;;;;5031456;28;20607;-82
2022/10/23 00:48:54;;;;;;;3.50;2.80;;;;;;;;;;5031097;28;20230;-82
2022/10/23 00:51:22;;;;;;;6.97;3.13;;;;;;;;;;5031423;28;20257;-81
2022/10/23 00:53:51;;;;;;;5.80;2.80;;;;;;;;;;5031551;28;20230;-81
2022/10/23 00:56:18;;;;;;;6.03;2.90;;;;;;;;;;5031763;28;20211;-81
2022/10/23 00:58:45;;;;;;;13.23;3.20;;;;;;;;;;5014462;28;20234;-81
2022/10/23 01:01:16;;;;;;;8.77;2.80;;;;;;;;;;5031448;28;20215;-82
2022/10/23 01:03:43;;;;;;;5.67;2.60;;;;;;;;;;5029502;28;20222;-82
2022/10/23 01:06:15;;;;;;;3.70;2.93;;;;;;;;;;5031836;28;20210;-81
2022/10/23 01:08:47;;;;;;;8.83;2.60;;;;;;;;;;5031129;28;20241;-82
2022/10/23 01:11:17;;;;;;;5.43;3.77;;;;;;;;;;5028301;28;20219;-82
2022/10/23 01:13:50;;;;;;;3.77;2.90;;;;;;;;;;5025084;28;20235;-81
2022/10/23 01:16:19;;;;;;;3.00;2.70;;;;;;;;;;5031622;28;20706;-81
2022/10/23 01:18:50;;;;;;;2.90;2.70;;;;;;;;;;5030976;28;20233;-81
2022/10/23 01:21:21;;;;;;;3.00;2.80;;;;;;;;;;5031429;28;20203;-81
2022/10/23 01:23:57;;;;;;;8.90;2.87;;;;;;;;;;5031258;28;20610;-81
2022/10/23 01:26:32;;;;;;;7.30;3.27;;;;;;;;;;5031605;28;20210;-81
2022/10/23 01:29:04;;;;;;;4.53;3.17;;;;;;;;;;5011460;28;20714;-82
2022/10/23 01:31:34;;;;;;;5.47;2.90;;;;;;;;;;5024630;28;20218;-82
2022/10/23 01:34:04;;;;;;;5.67;3.20;;;;;;;;;;5031651;28;20229;-82
2022/10/23 01:36:32;;;;;;;8.67;3.47;;;;;;;;;;5025146;28;20198;-82
2022/10/23 01:39:02;;;;;;;6.07;3.23;;;;;;;;;;5031278;28;20265;-82
2022/10/23 01:41:30;;;;;;;7.30;3.07;;;;;;;;;;5032030;28;20214;-81
2022/10/23 01:43:59;;;;;;;8.37;3.43;;;;;;;;;;5031384;28;20768;-82
2022/10/23 01:46:28;;;;;;;8.37;3.40;;;;;;;;;;5031757;28;20203;-83
2022/10/23 01:48:56;;;;;;;8.17;3.50;;;;;;;;;;5034745;28;20245;-81
2022/10/23 01:51:26;;;;;;;5.20;3.73;;;;;;;;;;5034859;28;20234;-82
2022/10/23 01:53:56;;;;;;;5.60;3.93;;;;;;;;;;5031301;28;20227;-82
2022/10/23 01:56:25;;;;;;;6.93;4.33;;;;;;;;;;5031407;28;20207;-82
2022/10/23 01:58:53;;;;;;;14.33;4.33;;;;;;;;;;5030538;28;20234;-82
2022/10/23 02:01:22;;;;;;;10.40;3.90;;;;;;;;;;5026890;28;20199;-82
2022/10/23 02:03:51;;;;;;;7.53;3.87;;;;;;;;;;5014790;28;20237;-82
2022/10/23 02:06:18;;;;;;;5.57;4.10;;;;;;;;;;5022462;28;20576;-82
2022/10/23 02:08:46;;;;;;;8.87;4.20;;;;;;;;;;5028210;28;20234;-83
2022/10/23 02:11:14;;;;;;;8.00;3.73;;;;;;;;;;5023019;28;20231;-83
2022/10/23 02:13:45;;;;;;;6.90;3.80;;;;;;;;;;5014164;28;20692;-82
2022/10/23 02:16:17;;;;;;;9.57;4.17;;;;;;;;;;5034582;28;20593;-81
2022/10/23 02:18:46;;;;;;;7.50;3.73;;;;;;;;;;5033978;28;20609;-83
2022/10/23 02:21:18;;;;;;;8.57;3.97;;;;;;;;;;5034988;28;20211;-82
2022/10/23 02:23:50;;;;;;;8.60;3.73;;;;;;;;;;5033874;28;20237;-82
2022/10/23 02:26:20;;;;;;;9.23;4.60;;;;;;;;;;5034832;28;20191;-82
2022/10/23 02:28:49;;;;;;;7.77;3.83;;;;;;;;;;5033369;28;20585;-82
2022/10/23 02:31:17;;;;;;;7.23;3.90;;;;;;;;;;5034566;28;20219;-82
2022/10/23 02:33:45;;;;;;;9.87;3.87;;;;;;;;;;5034335;28;20238;-82
2022/10/23 02:36:12;;;;;;;10.97;3.80;;;;;;;;;;5034777;28;20207;-82
2022/10/23 02:38:41;;;;;;;9.70;4.33;;;;;;;;;;5033286;28;20702;-82
2022/10/23 02:41:13;;;;;;;5.13;3.73;;;;;;;;;;5034342;28;20281;-82
2022/10/23 02:43:44;;;;;;;8.80;3.77;;;;;;;;;;5034003;28;20230;-82
2022/10/23 02:46:15;;;;;;;5.00;3.87;;;;;;;;;;5014734;28;20214;-82
2022/10/23 02:48:43;;;;;;;8.10;3.90;;;;;;;;;;5030333;28;20238;-82
2022/10/23 02:51:13;;;;;;;7.20;3.80;;;;;;;;;;5029207;28;20214;-82
2022/10/23 02:53:46;;;;;;;7.03;3.73;;;;;;;;;;5018090;28;20242;-82
2022/10/23 02:56:15;;;;;;;8.40;4.10;;;;;;;;;;5033751;28;20206;-82
2022/10/23 02:58:45;;;;;;;4.17;3.63;;;;;;;;;;5033193;28;20242;-83
2022/10/23 03:01:15;;;;;;;6.93;4.07;;;;;;;;;;5030577;28;20203;-82
2022/10/23 03:03:43;;;;;;;11.27;3.97;;;;;;;;;;5021187;28;20222;-82
2022/10/23 03:06:10;;;;;;;10.30;3.83;;;;;;;;;;5033320;28;20685;-82
2022/10/23 03:08:45;;;;;;;7.77;4.17;;;;;;;;;;5032548;28;20242;-82
2022/10/23 03:11:12;;;;;;;8.07;4.07;;;;;;;;;;5032685;28;20202;-82
2022/10/23 03:13:39;;;;;;;5.90;4.17;;;;;;;;;;5032992;28;20246;-82
2022/10/23 03:16:06;;;;;;;6.03;3.70;;;;;;;;;;5033410;28;20199;-82
2022/10/23 03:18:33;;;;;;;5.37;3.87;;;;;;;;;;5019092;28;20238;-83
2022/10/23 03:21:00;;;;;;;6.43;3.33;;;;;;;;;;5033648;28;20209;-83
2022/10/23 03:23:27;;;;;;;7.07;3.63;;;;;;;;;;5032781;28;20234;-82
2022/10/23 03:25:56;;;;;;;8.63;3.53;;;;;;;;;;5032576;28;20207;-82
2022/10/23 03:28:24;;;;;;;7.13;3.90;;;;;;;;;;5029546;28;20239;-82
2022/10/23 03:30:51;;;;;;;3.90;3.50;;;;;;;;;;5025317;28;22224;-82
2022/10/23 03:33:18;;;;;;;6.33;3.80;;;;;;;;;;5032723;28;20242;-82
2022/10/23 03:35:45;;;;;;;6.77;3.73;;;;;;;;;;5033098;28;20214;-82
2022/10/23 03:38:12;;;;;;;8.53;3.50;;;;;;;;;;5021336;28;20246;-82
2022/10/23 03:40:39;;;;;;;4.97;3.33;;;;;;;;;;5019832;28;20210;-83
2022/10/23 03:43:07;;;;;;;11.33;3.63;;;;;;;;;;5030972;28;20251;-82
2022/10/23 03:45:37;;;;;;;9.93;3.70;;;;;;;;;;5018509;28;20199;-82
2022/10/23 03:48:04;;;;;;;10.57;3.67;;;;;;;;;;5030947;28;20239;-83
2022/10/23 03:50:31;;;;;;;6.53;3.57;;;;;;;;;;5026593;28;20210;-82
2022/10/23 03:52:58;;;;;;;7.40;3.47;;;;;;;;;;5031574;28;20241;-83
2022/10/23 03:55:26;;;;;;;5.00;3.60;;;;;;;;;;5032374;28;20207;-82
2022/10/23 03:57:53;;;;;;;6.47;3.33;;;;;;;;;;5030958;28;20234;-82
2022/10/23 04:00:21;;;;;;;6.73;3.60;;;;;;;;;;5032179;28;20225;-82
2022/10/23 04:02:49;;;;;;;6.83;3.20;;;;;;;;;;5028140;28;20242;-82
2022/10/23 04:05:16;;;;;;;5.90;3.50;;;;;;;;;;5031847;28;20214;-83
2022/10/23 04:07:43;;;;;;;8.90;3.57;;;;;;;;;;5023739;28;20234;-81
2022/10/23 04:10:10;;;;;;;3.80;3.47;;;;;;;;;;5029833;28;20579;-82
2022/10/23 04:12:37;;;;;;;3.47;3.17;;;;;;;;;;5029939;28;20754;-83
2022/10/23 04:15:05;;;;;;;6.20;3.53;;;;;;;;;;5031516;28;20195;-82
2022/10/23 04:17:33;;;;;;;4.83;3.60;;;;;;;;;;5030327;28;20699;-83
2022/10/23 04:20:00;;;;;;;6.30;3.60;;;;;;;;;;5030225;28;20210;-82
2022/10/23 04:22:27;;;;;;;4.13;3.53;;;;;;;;;;5026959;28;20245;-82
2022/10/23 04:24:54;;;;;;;11.20;3.63;;;;;;;;;;5025638;28;20595;-82
2022/10/23 04:27:21;;;;;;;7.03;3.70;;;;;;;;;;5028837;28;20242;-82
2022/10/23 04:29:49;;;;;;;11.97;3.57;;;;;;;;;;5030020;28;20206;-83
2022/10/23 04:32:16;;;;;;;5.97;3.50;;;;;;;;;;5030529;28;20602;-82
2022/10/23 04:34:44;;;;;;;6.47;3.57;;;;;;;;;;5030070;28;20623;-82
2022/10/23 04:37:11;;;;;;;5.70;3.30;;;;;;;;;;5026366;28;20241;-83
2022/10/23 04:39:38;;;;;;;5.87;3.47;;;;;;;;;;5030304;28;20210;-83
2022/10/23 04:42:05;;;;;;;5.03;3.20;;;;;;;;;;5026872;28;20234;-82
2022/10/23 04:44:32;;;;;;;5.50;3.70;;;;;;;;;;5030696;28;20213;-83
2022/10/23 04:46:59;;;;;;;8.20;3.40;;;;;;;;;;5020887;28;20245;-82
2022/10/23 04:49:26;;;;;;;6.80;4.27;;;;;;;;;;5030009;28;20214;-82
2022/10/23 04:51:55;;;;;;;4.47;3.30;;;;;;;;;;5027694;28;20627;-82
2022/10/23 04:54:22;;;;;;;6.90;3.90;;;;;;;;;;5023309;28;20203;-83
2022/10/23 04:56:49;;;;;;;6.10;3.80;;;;;;;;;;5030503;28;20226;-83
2022/10/23 04:59:16;;;;;;;6.93;3.30;;;;;;;;;;5030015;28;20232;-82
2022/10/23 05:01:43;;;;;;;7.07;3.83;;;;;;;;;;5025580;28;20210;-83
2022/10/23 05:04:12;;;;;;;4.67;3.50;;;;;;;;;;5021391;28;20207;-82
2022/10/23 05:06:39;;;;;;;7.00;3.83;;;;;;;;;;5030166;28;20710;-82
2022/10/23 05:09:07;;;;;;;6.07;3.50;;;;;;;;;;5030798;28;20199;-82
2022/10/23 05:11:35;;;;;;;3.70;3.40;;;;;;;;;;5030565;28;20699;-82
2022/10/23 05:14:02;;;;;;;3.83;3.53;;;;;;;;;;5031581;28;20673;-81
2022/10/23 05:16:33;;;;;;;5.37;3.57;;;;;;;;;;5031497;28;20199;-81
2022/10/23 05:19:00;;;;;;;5.70;3.57;;;;;;;;;;5029188;28;20280;-81
2022/10/23 05:21:29;;;;;;;5.97;3.33;;;;;;;;;;5031318;28;20199;-82
2022/10/23 05:23:56;;;;;;;3.60;3.30;;;;;;;;;;5030925;28;20710;-81
2022/10/23 05:26:24;;;;;;;4.20;3.10;;;;;;;;;;5018797;28;20203;-81
2022/10/23 05:28:51;;;;;;;6.50;3.40;;;;;;;;;;5026909;28;20230;-81
2022/10/23 05:31:19;;;;;;;4.00;3.40;;;;;;;;;;5031224;28;20214;-81
2022/10/23 05:33:46;;;;;;;5.80;3.60;;;;;;;;;;5030780;28;20231;-82
2022/10/23 05:36:14;;;;;;;4.00;3.33;;;;;;;;;;5031335;28;20201;-82
2022/10/23 05:38:42;;;;;;;7.40;3.50;;;;;;;;;;5030609;28;20234;-81
2022/10/23 05:41:09;;;;;;;7.37;3.50;;;;;;;;;;5031427;28;20214;-82
2022/10/23 05:43:37;;;;;;;3.60;3.30;;;;;;;;;;5030771;28;20250;-82
2022/10/23 05:46:05;;;;;;;4.03;3.33;;;;;;;;;;5031535;28;20214;-82
2022/10/23 05:48:33;;;;;;;6.73;3.23;;;;;;;;;;5031048;28;20239;-82
2022/10/23 05:51:03;;;;;;;7.30;3.50;;;;;;;;;;5025769;28;20211;-80
2022/10/23 05:53:30;;;;;;;3.93;3.40;;;;;;;;;;5020878;28;20237;-81
2022/10/23 05:55:57;;;;;;;5.80;3.63;;;;;;;;;;5033961;28;20247;-81
2022/10/23 05:58:24;;;;;;;3.80;3.40;;;;;;;;;;5026686;28;20242;-83
2022/10/23 06:00:53;;;;;;;5.30;3.30;;;;;;;;;;5034537;28;20659;-82
2022/10/23 06:03:20;;;;;;;5.73;3.47;;;;;;;;;;5034320;28;20234;-82
2022/10/23 06:05:50;;;;;;;4.80;3.37;;;;;;;;;;5034576;28;20210;-82
2022/10/23 06:08:17;;;;;;;4.60;3.50;;;;;;;;;;5031276;28;20238;-82
2022/10/23 06:10:44;;;;;;;5.93;3.70;;;;;;;;;;5034842;28;20217;-82
2022/10/23 06:13:11;;;;;;;5.30;3.77;;;;;;;;;;5034635;28;20231;-81
2022/10/23 06:15:38;;;;;;;8.70;5.53;;;;;;;;;;5034720;28;20203;-82
2022/10/23 06:18:07;;;;;;;9.00;6.83;;;;;;;;;;5034168;28;20239;-81
2022/10/23 06:20:35;;;;;;;11.17;7.77;;;;;;;;;;5034740;28;20221;-82
2022/10/23 06:23:02;;;;;;;14.90;8.00;;;;;;;;;;5034337;28;20234;-82
2022/10/23 06:25:29;;;;;;;10.03;6.57;;;;;;;;;;5035041;28;20210;-81
2022/10/23 06:27:56;;;;;;;8.07;5.17;;;;;;;;;;5033888;28;20262;-82
2022/10/23 06:30:24;;;;;;;9.47;5.37;;;;;;;;;;5034946;28;20203;-82
2022/10/23 06:32:51;;;;;;;8.60;4.83;;;;;;;;;;5034201;28;20235;-82
2022/10/23 06:35:19;;;;;;;6.30;4.13;;;;;;;;;;5027170;28;20202;-82
2022/10/23 06:37:46;;;;;;;6.03;4.77;;;;;;;;;;5033762;28;20250;-81
2022/10/23 06:40:13;;;;;;;4.80;4.40;;;;;;;;;;5034619;28;20207;-82
2022/10/23 06:42:40;;;;;;;8.00;4.60;;;;;;;;;;5034004;28;20254;-81
2022/10/23 06:45:08;;;;;;;5.90;3.97;;;;;;;;;;5019739;28;20207;-82
2022/10/23 06:47:35;;;;;;;4.87;3.70;;;;;;;;;;5014046;28;20293;-82
2022/10/23 06:50:02;;;;;;;6.87;3.70;;;;;;;;;;5014785;28;20548;-81
2022/10/23 06:52:30;;;;;;;12.33;4.13;;;;;;;;;;5014077;28;20231;-82
2022/10/23 06:54:58;;;;;;;5.40;3.43;;;;;;;;;;5027428;28;20202;-82
2022/10/23 06:57:25;;;;;;;4.50;4.10;;;;;;;;;;5033487;28;20238;-82
2022/10/23 06:59:52;;;;;;;4.87;3.73;;;;;;;;;;5033657;28;20209;-81
2022/10/23 07:02:19;;;;;;;6.20;4.87;;;;;;;;;;5033361;28;20230;-81
2022/10/23 07:04:46;;;;;;;12.50;5.03;;;;;;;;;;5032642;28;20214;-82
2022/10/23 07:07:13;;;;;;;6.27;4.10;;;;;;;;;;5033798;28;20234;-82
2022/10/23 07:09:42;;;;;;;6.07;3.60;;;;;;;;;;5033473;28;20659;-82
2022/10/23 07:12:09;;;;;;;6.73;5.23;;;;;;;;;;5033272;28;20717;-82
2022/10/23 07:14:36;;;;;;;8.23;4.47;;;;;;;;;;5033902;28;20241;-82
2022/10/23 07:17:03;;;;;;;8.30;4.57;;;;;;;;;;5033252;28;20250;-81
2022/10/23 07:19:30;;;;;;;8.50;4.50;;;;;;;;;;5033549;28;20294;-82
2022/10/23 07:21:57;;;;;;;10.40;5.23;;;;;;;;;;5033353;28;20238;-81
2022/10/23 07:24:24;;;;;;;10.57;4.70;;;;;;;;;;5033709;28;20604;-82
2022/10/23 07:26:53;;;;;;;5.63;4.10;;;;;;;;;;5032781;28;20237;-82
2022/10/23 07:29:20;;;;;;;6.43;4.33;;;;;;;;;;5096325;22;20225;-91
2022/10/23 07:31:47;;;;;;;10.30;4.60;;;;;;;;;;5074149;28;20206;-91
2022/10/23 07:34:14;;;;;;;8.37;4.47;;;;;;;;;;5074173;28;20208;-91
2022/10/23 07:36:41;;;;;;;6.80;4.57;;;;;;;;;;5073883;28;20193;-90
2022/10/23 07:39:10;;;;;;;8.93;5.00;;;;;;;;;;5088007;28;20216;-89
2022/10/23 07:41:37;;;;;;;9.63;5.20;;;;;;;;;;5082807;28;20204;-88
2022/10/23 07:44:06;;;;;;;10.67;4.97;;;;;;;;;;5106348;28;20688;-91
2022/10/23 07:46:34;;;;;;;9.90;5.70;;;;;;;;;;5104966;28;20204;-90
2022/10/23 07:49:01;;;;;;;6.80;5.57;;;;;;;;;;5097646;28;20228;-89
2022/10/23 07:51:28;;;;;;;9.63;5.97;;;;;;;;;;5093876;28;20211;-88
2022/10/23 07:53:55;;;;;;;12.10;5.90;;;;;;;;;;5093249;28;20228;-89
2022/10/23 07:56:23;;;;;;;9.83;6.20;;;;;;;;;;5094049;28;20188;-90
2022/10/23 07:58:52;;;;;;;9.33;6.20;;;;;;;;;;5093374;28;20235;-92
2022/10/23 08:01:23;;;;;;;12.77;6.50;;;;;;;;;;5094235;28;20261;-90
2022/10/23 08:03:50;;;;;;;8.87;6.57;;;;;;;;;;5093385;28;20243;-92
2022/10/23 08:06:17;;;;;;;13.17;8.53;;;;;;;;;;5094156;28;20664;-91
2022/10/23 08:08:44;;;;;;;11.20;8.13;;;;;;;;;;5073615;28;20243;-93
2022/10/23 08:11:13;;;;;;;13.67;7.87;;;;;;;;;;5074392;28;20209;-92
2022/10/23 08:13:40;;;;;;;13.70;9.53;;;;;;;;;;5092758;28;20224;-92
2022/10/23 08:16:08;;;;;;;14.57;10.73;;;;;;;;;;5117296;28;20203;-91
2022/10/23 08:18:36;;;;;;;16.77;11.30;;;;;;;;;;5114059;27;20284;-92
2022/10/23 08:21:04;;;;;;;18.30;12.07;;;;;;;;;;5097963;28;20203;-91
2022/10/23 08:23:31;;;;;;;19.20;13.13;;;;;;;;;;5094566;28;20232;-92
2022/10/23 08:25:59;;;;;;;20.33;10.80;;;;;;;;;;5097929;28;20284;-91
2022/10/23 08:28:27;;;;;;;10.83;9.30;;;;;;;;;;5094399;28;20642;-92
2022/10/23 08:30:54;;;;;;;14.57;10.50;;;;;;;;;;5103216;28;20210;-92
2022/10/23 08:33:22;;;;;;;13.93;10.13;;;;;;;;;;5079058;28;20316;-94
2022/10/23 08:35:50;;;;;;;12.50;10.80;;;;;;;;;;5075088;28;20212;-91
2022/10/23 08:38:18;;;;;;;18.07;10.53;;;;;;;;;;5090961;28;20720;-91
2022/10/23 08:40:46;;;;;;;17.37;11.17;;;;;;;;;;5094392;28;20208;-91
2022/10/23 08:43:16;;;;;;;14.53;11.23;;;;;;;;;;5093594;28;20315;-92
2022/10/23 08:45:45;;;;;;;15.23;11.70;;;;;;;;;;5094133;28;20276;-91
2022/10/23 08:48:16;;;;;;;16.80;11.53;;;;;;;;;;5093212;28;20248;-91
2022/10/23 08:50:44;;;;;;;17.93;12.43;;;;;;;;;;5093766;28;20223;-92
2022/10/23 08:53:16;;;;;;;16.50;12.73;;;;;;;;;;5092872;28;20315;-91
2022/10/23 08:55:45;;;;;;;17.27;10.87;;;;;;;;;;5093563;28;20555;-89
2022/10/23 08:58:15;;;;;;;12.30;9.33;;;;;;;;;;5091537;28;20243;-88
2022/10/23 09:00:52;;;;;;;10.17;8.73;;;;;;;;;;5092950;28;20189;-90
2022/10/23 09:03:22;;;;;;;9.13;7.97;;;;;;;;;;5092158;27;20311;-89
2022/10/23 09:05:55;;;;;;;8.63;7.80;;;;;;;;;;5092065;28;20648;-89
2022/10/23 09:08:30;;;;;;;12.53;7.87;;;;;;;;;;5091352;27;20704;-89
2022/10/23 09:11:02;;;;;;;8.57;7.07;;;;;;;;;;5087654;28;20208;-89
2022/10/23 09:13:47;;;;;;;8.90;6.27;;;;;;;;;;5091922;28;20228;-90
2022/10/23 09:16:19;;;;;;;7.70;6.53;;;;;;;;;;5092634;28;20647;-91
2022/10/23 09:18:47;;;;;;;7.53;5.80;;;;;;;;;;5092325;28;20238;-91
2022/10/23 09:21:14;;;;;;;7.03;5.63;;;;;;;;;;5093233;28;20288;-92
2022/10/23 09:23:43;;;;;;;6.57;5.80;;;;;;;;;;5092976;28;20231;-87
2022/10/23 09:26:13;;;;;;;8.20;5.80;;;;;;;;;;5090549;28;20208;-87
2022/10/23 09:28:43;;;;;;;7.17;5.60;;;;;;;;;;5095022;28;20979;-86
2022/10/23 09:31:11;;;;;;;6.27;5.20;;;;;;;;;;5096221;28;20215;-89
2022/10/23 09:33:39;;;;;;;5.80;5.17;;;;;;;;;;5096632;27;20228;-90
2022/10/23 09:36:12;;;;;;;6.23;5.57;;;;;;;;;;5097229;28;20561;-90
2022/10/23 09:38:40;;;;;;;5.77;5.07;;;;;;;;;;5100740;28;20239;-91
2022/10/23 09:41:13;;;;;;;6.30;4.90;;;;;;;;;;5096716;28;20200;-91
2022/10/23 09:43:42;;;;;;;5.83;3.73;;;;;;;;;;5096654;27;20243;-90
2022/10/23 09:46:10;;;;;;;3.90;3.57;;;;;;;;;;5096420;28;20227;-92
2022/10/23 09:48:38;;;;;;;4.00;3.47;;;;;;;;;;5094801;27;20236;-91
2022/10/23 09:51:16;;;;;;;4.77;2.80;;;;;;;;;;5096162;28;20210;-91
2022/10/23 09:53:49;;;;;;;3.77;3.20;;;;;;;;;;5095817;28;20709;-91
2022/10/23 09:56:26;;;;;;;3.13;2.80;;;;;;;;;;5100596;28;20197;-91
2022/10/23 09:58:55;;;;;;;4.50;2.77;;;;;;;;;;5078183;28;20235;-91
2022/10/23 10:01:23;;;;;;;3.73;2.30;;;;;;;;;;5081985;28;20192;-91
2022/10/23 10:03:50;;;;;;;2.43;2.23;;;;;;;;;;5096684;28;20814;-92
2022/10/23 10:06:22;;;;;;;2.00;1.90;;;;;;;;;;5096439;28;20205;-91
2022/10/23 10:08:50;;;;;;;3.00;1.90;;;;;;;;;;5095036;27;20236;-91
2022/10/23 10:11:20;;;;;;;2.10;1.90;;;;;;;;;;5095749;28;20204;-91
2022/10/23 10:14:06;;;;;;;2.47;2.07;;;;;;;;;;5095932;27;20236;-92
2022/10/23 10:16:41;;;;;;;3.33;2.10;;;;;;;;;;5097666;27;20197;-91
2022/10/23 10:19:15;;;;;;;2.70;2.00;;;;;;;;;;5093016;28;20224;-92
2022/10/23 10:21:46;;;;;;;4.63;2.07;;;;;;;;;;5080489;28;20209;-92
2022/10/23 10:24:18;;;;;;;6.10;2.03;;;;;;;;;;5098616;28;20212;-94
2022/10/23 10:26:49;;;;;;;3.73;1.83;;;;;;;;;;5098734;28;20207;-93
2022/10/23 10:29:24;;;;;;;3.17;2.40;;;;;;;;;;5099355;28;20232;-94
2022/10/23 10:31:58;;;;;;;2.17;1.77;;;;;;;;;;5097424;28;20196;-90
2022/10/23 10:34:29;;;;;;;3.77;2.20;;;;;;;;;;5098309;28;20646;-90
2022/10/23 10:36:58;;;;;;;2.43;1.63;;;;;;;;;;5097167;28;20278;-90
2022/10/23 10:39:34;;;;;;;4.63;2.17;;;;;;;;;;5098034;28;20221;-92
2022/10/23 10:42:15;;;;;;;1.90;1.80;;;;;;;;;;5097201;28;20228;-92
2022/10/23 10:44:49;;;;;;;2.07;1.97;;;;;;;;;;5097553;28;20208;-93
2022/10/23 10:47:23;;;;;;;4.87;1.80;;;;;;;;;;5096211;28;20244;-92
2022/10/23 10:49:56;;;;;;;2.77;2.00;;;;;;;;;;5097689;28;20204;-93
2022/10/23 10:52:26;;;;;;;2.20;2.03;;;;;;;;;;5096122;28;20307;-91
2022/10/23 10:54:57;;;;;;;2.27;1.73;;;;;;;;;;5096207;28;20200;-91
2022/10/23 10:57:29;;;;;;;1.97;1.70;;;;;;;;;;5096174;27;20228;-90
2022/10/23 10:59:58;;;;;;;2.80;1.70;;;;;;;;;;5097163;28;20217;-92
2022/10/23 11:02:28;;;;;;;3.93;2.10;;;;;;;;;;5096619;27;20225;-91
2022/10/23 11:05:01;;;;;;;2.70;1.50;;;;;;;;;;5097131;28;20232;-92
2022/10/23 11:07:34;;;;;;;2.30;1.70;;;;;;;;;;5096792;27;20861;-91
2022/10/23 11:10:04;;;;;;;1.70;1.60;;;;;;;;;;5096786;28;20200;-92
2022/10/23 11:12:31;;;;;;;2.13;1.93;;;;;;;;;;5095653;27;20233;-91
2022/10/23 11:14:59;;;;;;;3.90;1.90;;;;;;;;;;5096961;28;20201;-91
2022/10/23 11:17:31;;;;;;;1.77;1.67;;;;;;;;;;5095944;27;20232;-92
2022/10/23 11:20:01;;;;;;;3.40;1.80;;;;;;;;;;5096097;28;20631;-92
2022/10/23 11:22:30;;;;;;;1.80;1.70;;;;;;;;;;5095490;28;20239;-92
2022/10/23 11:25:04;;;;;;;2.20;1.90;;;;;;;;;;5096067;28;20307;-93
2022/10/23 11:27:37;;;;;;;1.97;1.77;;;;;;;;;;5094811;28;20594;-91
2022/10/23 11:30:18;;;;;;;2.33;1.70;;;;;;;;;;5080909;28;20208;-94
2022/10/23 11:32:55;;;;;;;2.00;1.58;;;;;;;;;;5085859;28;20253;-92
2022/10/23 11:35:38;;;;;;;2.10;1.90;;;;;;;;;;5095621;28;20196;-91
2022/10/23 11:38:14;;;;;;;1.90;1.75;;;;;;;;;;5093845;28;20306;-90
2022/10/23 11:40:44;;;;;;;2.63;2.08;;;;;;;;;;5074737;28;20200;-91
2022/10/23 11:43:11;;;;;;;1.80;1.70;;;;;;;;;;5074351;28;20233;-92
2022/10/23 11:45:39;;;;;;;2.22;1.60;;;;;;;;;;5075109;28;20232;-91
2022/10/23 11:48:24;;;;;;;5.85;1.80;;;;;;;;;;5073859;28;20237;-92
2022/10/23 11:50:53;;;;;;;2.03;1.80;;;;;;;;;;5077785;28;20304;-91
2022/10/23 11:53:25;;;;;;;1.95;1.70;;;;;;;;;;5094046;28;20302;-90
2022/10/23 11:55:59;;;;;;;2.17;1.85;;;;;;;;;;5093510;28;20197;-90
2022/10/23 11:58:30;;;;;;;1.70;1.60;;;;;;;;;;5071514;28;20703;-91
2022/10/23 12:01:06;;;;;;;2.15;1.50;;;;;;;;;;5099406;28;20239;-91
2022/10/23 12:03:39;;;;;;;3.58;2.38;;;;;;;;;;5092747;28;20232;-90
2022/10/23 12:06:06;;;;;;;6.90;1.83;;;;;;;;;;5093658;28;20437;-93
2022/10/23 12:08:35;;;;;;;4.25;2.25;;;;;;;;;;5095151;28;20243;-94
2022/10/23 12:11:02;;;;;;;4.07;2.13;;;;;;;;;;5096171;28;20261;-96
2022/10/23 12:13:34;;;;;;;2.55;1.80;;;;;;;;;;5099292;28;20315;-95
2022/10/23 12:16:03;;;;;;;2.83;2.63;;;;;;;;;;5096081;28;20274;-93
2022/10/23 12:18:31;;;;;;;1.95;1.75;;;;;;;;;;5094496;28;20247;-94
2022/10/23 12:21:00;;;;;;;2.95;1.60;;;;;;;;;;5094562;28;20208;-93
2022/10/23 12:23:40;;;;;;;1.50;1.40;;;;;;;;;;5093696;28;20246;-92
2022/10/23 12:26:18;;;;;;;2.45;1.73;;;;;;;;;;5093468;28;20220;-92
2022/10/23 12:28:49;;;;;;;2.00;1.88;;;;;;;;;;5089003;28;20722;-93
2022/10/23 12:31:24;;;;;;;3.08;1.77;;;;;;;;;;5093806;28;20207;-92
2022/10/23 12:33:53;;;;;;;2.83;1.60;;;;;;;;;;5094102;27;20228;-94
2022/10/23 12:36:30;;;;;;;4.20;1.95;;;;;;;;;;5094920;28;20213;-91
2022/10/23 12:38:58;;;;;;;1.70;1.60;;;;;;;;;;5076934;28;20589;-90
2022/10/23 12:41:26;;;;;;;2.20;1.52;;;;;;;;;;5092684;28;20211;-91
2022/10/23 12:43:55;;;;;;;5.75;1.83;;;;;;;;;;5086499;28;20228;-91
2022/10/23 12:46:33;;;;;;;2.72;2.10;;;;;;;;;;5090959;28;20224;-92
2022/10/23 12:49:02;;;;;;;3.13;1.85;;;;;;;;;;5086401;28;20220;-91
2022/10/23 12:51:32;;;;;;;1.70;1.60;;;;;;;;;;5095443;28;20260;-92
2022/10/23 12:53:59;;;;;;;2.47;1.30;;;;;;;;;;5091763;28;20224;-93
2022/10/23 12:56:27;;;;;;;3.15;1.65;;;;;;;;;;5091616;28;20204;-91
2022/10/23 12:58:54;;;;;;;1.75;1.10;;;;;;;;;;5085739;28;20233;-92
2022/10/23 13:01:26;;;;;;;1.90;1.55;;;;;;;;;;5082824;28;20214;-93
2022/10/23 13:03:56;;;;;;;3.28;1.50;;;;;;;;;;5072768;27;20233;-91
2022/10/23 13:06:23;;;;;;;2.65;2.35;;;;;;;;;;5082378;28;20205;-92
2022/10/23 13:08:52;;;;;;;1.35;1.25;;;;;;;;;;5091483;27;20244;-92
2022/10/23 13:11:21;;;;;;;2.83;1.40;;;;;;;;;;5078539;28;20201;-92
2022/10/23 13:13:48;;;;;;;2.92;1.60;;;;;;;;;;5091531;28;20243;-92
2022/10/23 13:16:16;;;;;;;1.92;1.73;;;;;;;;;;5091783;28;20250;-92
2022/10/23 13:18:43;;;;;;;1.60;1.50;;;;;;;;;;5091684;28;20240;-91
2022/10/23 13:21:16;;;;;;;3.65;1.33;;;;;;;;;;5093342;28;20684;-90
2022/10/23 13:23:50;;;;;;;1.73;1.48;;;;;;;;;;5090166;28;20232;-94
2022/10/23 13:26:28;;;;;;;1.77;1.33;;;;;;;;;;5098815;28;20242;-92
2022/10/23 13:28:57;;;;;;;5.32;1.75;;;;;;;;;;5095262;27;20720;-93
2022/10/23 13:31:27;;;;;;;1.60;1.50;;;;;;;;;;5087084;28;20207;-92
2022/10/23 13:34:05;;;;;;;2.85;1.65;;;;;;;;;;5090514;28;20282;-92
2022/10/23 13:36:35;;;;;;;3.83;1.40;;;;;;;;;;5096610;28;20208;-93
2022/10/23 13:39:03;;;;;;;1.63;1.50;;;;;;;;;;5093173;28;20229;-91
2022/10/23 13:41:36;;;;;;;1.90;1.70;;;;;;;;;;5079875;28;20217;-91
2022/10/23 13:44:03;;;;;;;2.13;1.35;;;;;;;;;;5092093;28;20906;-91
2022/10/23 13:46:31;;;;;;;1.45;1.35;;;;;;;;;;5091593;28;20224;-83
2022/10/23 13:48:58;;;;;;;3.83;1.30;;;;;;;;;;5091068;28;20235;-82
2022/10/23 13:51:26;;;;;;;4.93;1.30;;;;;;;;;;5091314;28;20200;-82
2022/10/23 13:53:54;;;;;;;4.20;1.60;;;;;;;;;;5089284;28;20562;-82
2022/10/23 13:56:22;;;;;;;1.42;1.33;;;;;;;;;;5082504;28;20558;-82
2022/10/23 13:58:51;;;;;;;1.63;1.30;;;;;;;;;;5089551;28;20692;-83
2022/10/23 14:01:21;;;;;;;1.35;1.25;;;;;;;;;;5091476;28;20209;-84
2022/10/23 14:03:48;;;;;;;1.73;1.40;;;;;;;;;;5081896;28;20706;-85
2022/10/23 14:06:16;;;;;;;3.47;1.10;;;;;;;;;;5090385;28;20232;-84
2022/10/23 14:08:43;;;;;;;1.20;1.10;;;;;;;;;;5093321;28;20711;-85
2022/10/23 14:11:10;;;;;;;3.95;1.20;;;;;;;;;;5100576;28;20209;-84
2022/10/23 14:13:37;;;;;;;1.30;1.20;;;;;;;;;;5094623;27;20232;-84
2022/10/23 14:16:06;;;;;;;5.40;1.17;;;;;;;;;;5094583;28;20208;-84
2022/10/23 14:18:34;;;;;;;1.30;1.10;;;;;;;;;;5094333;28;20613;-84
2022/10/23 14:21:01;;;;;;;3.47;1.33;;;;;;;;;;5095200;28;20200;-84
2022/10/23 14:23:28;;;;;;;1.30;1.20;;;;;;;;;;5092835;28;20228;-84
2022/10/23 14:26:01;;;;;;;2.20;1.45;;;;;;;;;;5092745;28;20700;-85
2022/10/23 14:28:28;;;;;;;3.80;1.63;;;;;;;;;;5093333;28;20243;-84
2022/10/23 14:30:56;;;;;;;1.63;1.52;;;;;;;;;;5098680;28;20204;-83
2022/10/23 14:33:24;;;;;;;2.90;1.25;;;;;;;;;;5093202;28;20243;-83
2022/10/23 14:35:51;;;;;;;2.28;1.40;;;;;;;;;;5094492;28;20543;-83
2022/10/23 14:38:18;;;;;;;1.30;1.20;;;;;;;;;;5093620;28;20236;-82
2022/10/23 14:40:45;;;;;;;7.18;1.50;;;;;;;;;;5094069;28;20888;-82
2022/10/23 14:43:13;;;;;;;1.33;1.23;;;;;;;;;;5090409;28;20235;-84
2022/10/23 14:45:40;;;;;;;1.85;1.35;;;;;;;;;;5089222;28;20219;-85
2022/10/23 14:48:08;;;;;;;3.75;1.50;;;;;;;;;;5092866;28;20244;-85
2022/10/23 14:50:38;;;;;;;4.05;1.88;;;;;;;;;;5093543;28;20199;-85
2022/10/23 14:53:05;;;;;;;3.28;1.67;;;;;;;;;;5092802;28;20229;-86